sensor_id;sensor_type;location;lat;lon;timestamp;P1;durP1;ratioP1;P2;durP2;ratioP2
26337;SDS011;14050;50.950;4.460;2023-05-06T00:01:30;5.83;;;3.07;;
26337;SDS011;14050;50.950;4.460;2023-05-06T00:06:31;8.60;;;3.28;;
26337;SDS011;14050;50.950;4.460;2023-05-06T00:11:32;6.30;;;3.53;;
26337;SDS011;14050;50.950;4.460;2023-05-06T00:16:34;6.43;;;3.33;;
26337;SDS011;14050;50.950;4.460;2023-05-06T00:21:34;8.70;;;3.27;;
26337;SDS011;14050;50.950;4.460;2023-05-06T00:26:34;6.33;;;3.47;;
26337;SDS011;14050;50.950;4.460;2023-05-06T00:31:35;8.18;;;3.30;;
26337;SDS011;14050;50.950;4.460;2023-05-06T00:36:35;7.50;;;3.70;;
26337;SDS011;14050;50.950;4.460;2023-05-06T00:41:36;6.30;;;3.13;;
26337;SDS011;14050;50.950;4.460;2023-05-06T00:46:36;11.02;;;3.63;;
26337;SDS011;14050;50.950;4.460;2023-05-06T00:51:37;12.18;;;3.70;;
26337;SDS011;14050;50.950;4.460;2023-05-06T00:56:37;10.80;;;4.07;;
26337;SDS011;14050;50.950;4.460;2023-05-06T01:01:37;7.20;;;4.13;;
26337;SDS011;14050;50.950;4.460;2023-05-06T01:11:48;7.70;;;3.78;;
26337;SDS011;14050;50.950;4.460;2023-05-06T01:16:50;11.43;;;4.95;;
26337;SDS011;14050;50.950;4.460;2023-05-06T01:21:53;8.27;;;4.55;;
26337;SDS011;14050;50.950;4.460;2023-05-06T01:26:53;12.20;;;5.20;;
26337;SDS011;14050;50.950;4.460;2023-05-06T01:31:54;10.43;;;5.25;;
26337;SDS011;14050;50.950;4.460;2023-05-06T01:41:56;10.35;;;5.53;;
26337;SDS011;14050;50.950;4.460;2023-05-06T01:46:58;12.02;;;4.65;;
26337;SDS011;14050;50.950;4.460;2023-05-06T01:51:59;10.82;;;5.43;;
26337;SDS011;14050;50.950;4.460;2023-05-06T01:57:01;9.15;;;5.55;;
26337;SDS011;14050;50.950;4.460;2023-05-06T02:02:01;13.30;;;6.50;;
26337;SDS011;14050;50.950;4.460;2023-05-06T02:07:02;14.23;;;6.18;;
26337;SDS011;14050;50.950;4.460;2023-05-06T02:12:02;13.80;;;6.00;;
26337;SDS011;14050;50.950;4.460;2023-05-06T02:17:03;11.00;;;5.72;;
26337;SDS011;14050;50.950;4.460;2023-05-06T02:22:03;14.30;;;5.97;;
26337;SDS011;14050;50.950;4.460;2023-05-06T02:27:04;12.88;;;6.38;;
26337;SDS011;14050;50.950;4.460;2023-05-06T02:32:04;11.02;;;5.65;;
26337;SDS011;14050;50.950;4.460;2023-05-06T02:37:05;12.85;;;5.88;;
26337;SDS011;14050;50.950;4.460;2023-05-06T02:42:05;10.23;;;5.30;;
26337;SDS011;14050;50.950;4.460;2023-05-06T02:47:05;13.48;;;5.65;;
26337;SDS011;14050;50.950;4.460;2023-05-06T02:52:06;10.67;;;4.90;;
26337;SDS011;14050;50.950;4.460;2023-05-06T02:57:06;14.07;;;5.13;;
26337;SDS011;14050;50.950;4.460;2023-05-06T03:02:07;9.20;;;4.63;;
26337;SDS011;14050;50.950;4.460;2023-05-06T03:07:07;12.15;;;5.60;;
26337;SDS011;14050;50.950;4.460;2023-05-06T03:12:07;11.75;;;5.18;;
26337;SDS011;14050;50.950;4.460;2023-05-06T03:17:08;9.20;;;5.10;;
26337;SDS011;14050;50.950;4.460;2023-05-06T03:22:08;11.48;;;5.00;;
26337;SDS011;14050;50.950;4.460;2023-05-06T03:27:09;8.02;;;4.68;;
26337;SDS011;14050;50.950;4.460;2023-05-06T03:32:09;10.50;;;4.88;;
26337;SDS011;14050;50.950;4.460;2023-05-06T03:37:09;7.77;;;4.00;;
26337;SDS011;14050;50.950;4.460;2023-05-06T03:42:10;8.82;;;4.45;;
26337;SDS011;14050;50.950;4.460;2023-05-06T03:47:10;10.10;;;4.43;;
26337;SDS011;14050;50.950;4.460;2023-05-06T03:52:10;8.97;;;3.83;;
26337;SDS011;14050;50.950;4.460;2023-05-06T03:57:11;7.03;;;4.37;;
26337;SDS011;14050;50.950;4.460;2023-05-06T04:02:11;8.10;;;4.15;;
26337;SDS011;14050;50.950;4.460;2023-05-06T04:07:11;9.07;;;3.97;;
26337;SDS011;14050;50.950;4.460;2023-05-06T04:12:13;10.48;;;4.63;;
26337;SDS011;14050;50.950;4.460;2023-05-06T04:17:13;9.20;;;4.15;;
26337;SDS011;14050;50.950;4.460;2023-05-06T04:22:13;9.68;;;4.30;;
26337;SDS011;14050;50.950;4.460;2023-05-06T04:27:14;15.90;;;4.20;;
26337;SDS011;14050;50.950;4.460;2023-05-06T04:32:14;7.90;;;3.95;;
26337;SDS011;14050;50.950;4.460;2023-05-06T04:37:17;8.60;;;4.10;;
26337;SDS011;14050;50.950;4.460;2023-05-06T04:42:18;8.88;;;3.67;;
26337;SDS011;14050;50.950;4.460;2023-05-06T04:47:18;6.60;;;3.70;;
26337;SDS011;14050;50.950;4.460;2023-05-06T04:52:19;7.55;;;3.70;;
26337;SDS011;14050;50.950;4.460;2023-05-06T04:57:19;8.70;;;3.45;;
26337;SDS011;14050;50.950;4.460;2023-05-06T05:02:19;8.75;;;3.83;;
26337;SDS011;14050;50.950;4.460;2023-05-06T05:07:20;7.47;;;3.40;;
26337;SDS011;14050;50.950;4.460;2023-05-06T05:12:20;7.38;;;3.58;;
26337;SDS011;14050;50.950;4.460;2023-05-06T05:17:21;5.85;;;3.72;;
26337;SDS011;14050;50.950;4.460;2023-05-06T05:22:21;8.73;;;3.90;;
26337;SDS011;14050;50.950;4.460;2023-05-06T05:27:22;8.10;;;4.47;;
26337;SDS011;14050;50.950;4.460;2023-05-06T05:32:22;7.60;;;4.22;;
26337;SDS011;14050;50.950;4.460;2023-05-06T05:37:23;8.70;;;4.70;;
26337;SDS011;14050;50.950;4.460;2023-05-06T05:42:26;6.63;;;4.60;;
26337;SDS011;14050;50.950;4.460;2023-05-06T05:47:27;8.90;;;4.10;;
26337;SDS011;14050;50.950;4.460;2023-05-06T05:52:28;11.52;;;4.20;;
26337;SDS011;14050;50.950;4.460;2023-05-06T05:57:29;7.05;;;4.30;;
26337;SDS011;14050;50.950;4.460;2023-05-06T06:02:30;5.88;;;3.85;;
26337;SDS011;14050;50.950;4.460;2023-05-06T06:07:30;7.27;;;4.77;;
26337;SDS011;14050;50.950;4.460;2023-05-06T06:12:31;10.43;;;4.75;;
26337;SDS011;14050;50.950;4.460;2023-05-06T06:17:32;7.95;;;4.15;;
26337;SDS011;14050;50.950;4.460;2023-05-06T06:22:33;6.37;;;4.37;;
26337;SDS011;14050;50.950;4.460;2023-05-06T06:27:33;5.53;;;3.90;;
26337;SDS011;14050;50.950;4.460;2023-05-06T06:32:34;9.27;;;4.55;;
26337;SDS011;14050;50.950;4.460;2023-05-06T06:37:34;7.50;;;3.67;;
26337;SDS011;14050;50.950;4.460;2023-05-06T06:42:35;5.13;;;3.67;;
26337;SDS011;14050;50.950;4.460;2023-05-06T06:47:35;7.88;;;4.32;;
26337;SDS011;14050;50.950;4.460;2023-05-06T06:52:36;10.82;;;4.60;;
26337;SDS011;14050;50.950;4.460;2023-05-06T06:57:37;8.73;;;4.85;;
26337;SDS011;14050;50.950;4.460;2023-05-06T07:02:39;7.88;;;4.57;;
26337;SDS011;14050;50.950;4.460;2023-05-06T07:07:39;9.20;;;5.28;;
26337;SDS011;14050;50.950;4.460;2023-05-06T07:12:40;11.27;;;4.57;;
26337;SDS011;14050;50.950;4.460;2023-05-06T07:17:40;9.15;;;4.18;;
26337;SDS011;14050;50.950;4.460;2023-05-06T07:22:40;8.27;;;4.53;;
26337;SDS011;14050;50.950;4.460;2023-05-06T07:27:41;10.17;;;4.40;;
26337;SDS011;14050;50.950;4.460;2023-05-06T07:32:41;10.67;;;4.00;;
26337;SDS011;14050;50.950;4.460;2023-05-06T07:37:44;10.20;;;4.50;;
26337;SDS011;14050;50.950;4.460;2023-05-06T07:42:44;10.65;;;4.57;;
26337;SDS011;14050;50.950;4.460;2023-05-06T07:47:45;7.50;;;3.83;;
26337;SDS011;14050;50.950;4.460;2023-05-06T07:52:45;10.98;;;4.20;;
26337;SDS011;14050;50.950;4.460;2023-05-06T07:57:45;8.30;;;3.50;;
26337;SDS011;14050;50.950;4.460;2023-05-06T08:02:46;6.07;;;3.17;;
26337;SDS011;14050;50.950;4.460;2023-05-06T08:07:47;9.90;;;3.40;;
26337;SDS011;14050;50.950;4.460;2023-05-06T08:12:49;10.00;;;3.85;;
26337;SDS011;14050;50.950;4.460;2023-05-06T08:17:49;8.83;;;3.60;;
26337;SDS011;14050;50.950;4.460;2023-05-06T08:22:49;7.43;;;3.43;;
26337;SDS011;14050;50.950;4.460;2023-05-06T08:27:50;6.07;;;2.45;;
26337;SDS011;14050;50.950;4.460;2023-05-06T08:32:50;9.70;;;2.53;;
26337;SDS011;14050;50.950;4.460;2023-05-06T08:37:51;8.75;;;2.67;;
26337;SDS011;14050;50.950;4.460;2023-05-06T08:42:51;6.38;;;2.25;;
26337;SDS011;14050;50.950;4.460;2023-05-06T08:47:53;5.35;;;1.92;;
26337;SDS011;14050;50.950;4.460;2023-05-06T08:52:54;4.80;;;1.90;;
26337;SDS011;14050;50.950;4.460;2023-05-06T08:57:54;5.97;;;2.22;;
26337;SDS011;14050;50.950;4.460;2023-05-06T09:02:56;4.75;;;1.75;;
26337;SDS011;14050;50.950;4.460;2023-05-06T09:07:56;7.78;;;1.90;;
26337;SDS011;14050;50.950;4.460;2023-05-06T09:12:57;4.35;;;1.70;;
26337;SDS011;14050;50.950;4.460;2023-05-06T09:17:57;9.02;;;2.00;;
26337;SDS011;14050;50.950;4.460;2023-05-06T09:23:00;6.10;;;2.15;;
26337;SDS011;14050;50.950;4.460;2023-05-06T09:28:08;3.28;;;1.40;;
26337;SDS011;14050;50.950;4.460;2023-05-06T09:33:09;3.55;;;1.35;;
26337;SDS011;14050;50.950;4.460;2023-05-06T09:38:09;6.63;;;1.30;;
26337;SDS011;14050;50.950;4.460;2023-05-06T09:43:10;3.97;;;1.50;;
26337;SDS011;14050;50.950;4.460;2023-05-06T09:48:11;5.25;;;1.25;;
26337;SDS011;14050;50.950;4.460;2023-05-06T09:53:11;3.95;;;1.42;;
26337;SDS011;14050;50.950;4.460;2023-05-06T09:58:12;7.30;;;1.23;;
26337;SDS011;14050;50.950;4.460;2023-05-06T10:03:13;5.88;;;1.05;;
26337;SDS011;14050;50.950;4.460;2023-05-06T10:08:15;3.45;;;1.40;;
26337;SDS011;14050;50.950;4.460;2023-05-06T10:13:20;3.83;;;1.40;;
26337;SDS011;14050;50.950;4.460;2023-05-06T10:18:21;5.45;;;1.30;;
26337;SDS011;14050;50.950;4.460;2023-05-06T10:23:23;3.90;;;1.27;;
26337;SDS011;14050;50.950;4.460;2023-05-06T10:28:24;6.22;;;1.63;;
26337;SDS011;14050;50.950;4.460;2023-05-06T10:33:25;4.57;;;1.30;;
26337;SDS011;14050;50.950;4.460;2023-05-06T10:38:34;3.65;;;1.27;;
26337;SDS011;14050;50.950;4.460;2023-05-06T10:43:40;3.55;;;1.30;;
26337;SDS011;14050;50.950;4.460;2023-05-06T10:54:03;7.90;;;1.65;;
26337;SDS011;14050;50.950;4.460;2023-05-06T10:59:09;6.90;;;1.27;;
26337;SDS011;14050;50.950;4.460;2023-05-06T11:04:11;4.13;;;1.48;;
26337;SDS011;14050;50.950;4.460;2023-05-06T11:09:18;6.22;;;1.52;;
26337;SDS011;14050;50.950;4.460;2023-05-06T11:19:27;7.70;;;2.03;;
26337;SDS011;14050;50.950;4.460;2023-05-06T11:29:28;5.82;;;2.10;;
26337;SDS011;14050;50.950;4.460;2023-05-06T11:34:29;5.80;;;1.40;;
26337;SDS011;14050;50.950;4.460;2023-05-06T11:39:30;5.40;;;1.52;;
26337;SDS011;14050;50.950;4.460;2023-05-06T11:44:32;7.63;;;1.67;;
26337;SDS011;14050;50.950;4.460;2023-05-06T11:49:38;3.95;;;1.42;;
26337;SDS011;14050;50.950;4.460;2023-05-06T11:54:40;5.93;;;1.30;;
26337;SDS011;14050;50.950;4.460;2023-05-06T11:59:40;4.65;;;1.40;;
26337;SDS011;14050;50.950;4.460;2023-05-06T12:09:42;7.77;;;1.97;;
26337;SDS011;14050;50.950;4.460;2023-05-06T12:14:42;4.68;;;1.60;;
26337;SDS011;14050;50.950;4.460;2023-05-06T12:19:44;6.50;;;2.00;;
26337;SDS011;14050;50.950;4.460;2023-05-06T12:24:45;5.22;;;1.50;;
26337;SDS011;14050;50.950;4.460;2023-05-06T12:29:51;5.75;;;1.75;;
26337;SDS011;14050;50.950;4.460;2023-05-06T12:34:52;5.97;;;1.75;;
26337;SDS011;14050;50.950;4.460;2023-05-06T12:39:53;7.65;;;1.70;;
26337;SDS011;14050;50.950;4.460;2023-05-06T12:44:54;5.45;;;1.55;;
26337;SDS011;14050;50.950;4.460;2023-05-06T12:49:55;8.07;;;1.50;;
26337;SDS011;14050;50.950;4.460;2023-05-06T12:54:59;4.65;;;1.42;;
26337;SDS011;14050;50.950;4.460;2023-05-06T12:59:59;9.60;;;2.10;;
26337;SDS011;14050;50.950;4.460;2023-05-06T13:05:00;5.70;;;1.60;;
26337;SDS011;14050;50.950;4.460;2023-05-06T13:10:01;6.55;;;1.80;;
26337;SDS011;14050;50.950;4.460;2023-05-06T13:15:02;7.35;;;1.90;;
26337;SDS011;14050;50.950;4.460;2023-05-06T13:20:03;5.15;;;1.67;;
26337;SDS011;14050;50.950;4.460;2023-05-06T13:25:04;7.15;;;1.70;;
26337;SDS011;14050;50.950;4.460;2023-05-06T13:30:06;7.25;;;1.48;;
26337;SDS011;14050;50.950;4.460;2023-05-06T13:35:07;4.35;;;1.60;;
26337;SDS011;14050;50.950;4.460;2023-05-06T13:40:08;6.28;;;2.05;;
26337;SDS011;14050;50.950;4.460;2023-05-06T13:45:08;8.18;;;2.10;;
26337;SDS011;14050;50.950;4.460;2023-05-06T13:50:09;5.85;;;1.65;;
26337;SDS011;14050;50.950;4.460;2023-05-06T13:55:09;7.60;;;1.65;;
26337;SDS011;14050;50.950;4.460;2023-05-06T14:00:11;7.30;;;2.07;;
26337;SDS011;14050;50.950;4.460;2023-05-06T14:05:12;7.20;;;2.20;;
26337;SDS011;14050;50.950;4.460;2023-05-06T14:10:14;8.80;;;2.30;;
26337;SDS011;14050;50.950;4.460;2023-05-06T14:15:14;5.40;;;2.10;;
26337;SDS011;14050;50.950;4.460;2023-05-06T14:20:15;8.68;;;2.53;;
26337;SDS011;14050;50.950;4.460;2023-05-06T14:25:15;7.83;;;2.33;;
26337;SDS011;14050;50.950;4.460;2023-05-06T14:30:16;9.57;;;2.37;;
26337;SDS011;14050;50.950;4.460;2023-05-06T14:35:16;7.13;;;2.38;;
26337;SDS011;14050;50.950;4.460;2023-05-06T14:40:17;9.87;;;4.20;;
26337;SDS011;14050;50.950;4.460;2023-05-06T14:45:17;9.17;;;2.37;;
26337;SDS011;14050;50.950;4.460;2023-05-06T14:50:18;11.25;;;2.53;;
26337;SDS011;14050;50.950;4.460;2023-05-06T14:55:18;7.93;;;2.03;;
26337;SDS011;14050;50.950;4.460;2023-05-06T15:00:19;7.50;;;1.95;;
26337;SDS011;14050;50.950;4.460;2023-05-06T15:05:19;7.97;;;2.50;;
26337;SDS011;14050;50.950;4.460;2023-05-06T15:10:20;6.00;;;1.90;;
26337;SDS011;14050;50.950;4.460;2023-05-06T15:15:20;9.60;;;2.50;;
26337;SDS011;14050;50.950;4.460;2023-05-06T15:20:21;7.97;;;1.88;;
26337;SDS011;14050;50.950;4.460;2023-05-06T15:25:21;11.05;;;2.38;;
26337;SDS011;14050;50.950;4.460;2023-05-06T15:30:21;7.80;;;2.17;;
26337;SDS011;14050;50.950;4.460;2023-05-06T15:35:22;13.30;;;2.10;;
26337;SDS011;14050;50.950;4.460;2023-05-06T15:40:22;12.03;;;3.27;;
26337;SDS011;14050;50.950;4.460;2023-05-06T15:45:24;11.18;;;3.67;;
26337;SDS011;14050;50.950;4.460;2023-05-06T15:50:25;10.98;;;2.60;;
26337;SDS011;14050;50.950;4.460;2023-05-06T15:55:25;13.43;;;3.00;;
26337;SDS011;14050;50.950;4.460;2023-05-06T16:00:25;9.67;;;2.77;;
26337;SDS011;14050;50.950;4.460;2023-05-06T16:05:26;12.85;;;3.20;;
26337;SDS011;14050;50.950;4.460;2023-05-06T16:10:28;14.95;;;3.80;;
26337;SDS011;14050;50.950;4.460;2023-05-06T16:15:28;8.80;;;2.78;;
26337;SDS011;14050;50.950;4.460;2023-05-06T16:20:29;8.82;;;2.38;;
26337;SDS011;14050;50.950;4.460;2023-05-06T16:25:31;8.00;;;2.42;;
26337;SDS011;14050;50.950;4.460;2023-05-06T16:30:32;10.45;;;2.38;;
26337;SDS011;14050;50.950;4.460;2023-05-06T16:35:32;11.00;;;2.40;;
26337;SDS011;14050;50.950;4.460;2023-05-06T16:40:38;12.45;;;2.35;;
26337;SDS011;14050;50.950;4.460;2023-05-06T16:45:39;9.60;;;2.28;;
26337;SDS011;14050;50.950;4.460;2023-05-06T16:50:46;9.05;;;2.17;;
26337;SDS011;14050;50.950;4.460;2023-05-06T16:55:47;8.32;;;2.00;;
26337;SDS011;14050;50.950;4.460;2023-05-06T17:00:49;10.30;;;1.83;;
26337;SDS011;14050;50.950;4.460;2023-05-06T17:05:53;13.63;;;2.35;;
26337;SDS011;14050;50.950;4.460;2023-05-06T17:10:54;8.77;;;3.05;;
26337;SDS011;14050;50.950;4.460;2023-05-06T17:15:56;13.10;;;3.40;;
26337;SDS011;14050;50.950;4.460;2023-05-06T17:20:59;9.95;;;2.65;;
26337;SDS011;14050;50.950;4.460;2023-05-06T17:26:00;9.48;;;2.47;;
26337;SDS011;14050;50.950;4.460;2023-05-06T17:31:00;15.48;;;3.55;;
26337;SDS011;14050;50.950;4.460;2023-05-06T17:36:01;12.10;;;2.95;;
26337;SDS011;14050;50.950;4.460;2023-05-06T17:41:02;8.32;;;2.53;;
26337;SDS011;14050;50.950;4.460;2023-05-06T17:46:03;7.63;;;2.20;;
26337;SDS011;14050;50.950;4.460;2023-05-06T17:51:06;11.50;;;2.60;;
26337;SDS011;14050;50.950;4.460;2023-05-06T17:56:08;7.80;;;2.08;;
26337;SDS011;14050;50.950;4.460;2023-05-06T18:01:08;10.65;;;2.40;;
26337;SDS011;14050;50.950;4.460;2023-05-06T18:06:10;12.90;;;2.20;;
26337;SDS011;14050;50.950;4.460;2023-05-06T18:11:10;12.90;;;2.97;;
26337;SDS011;14050;50.950;4.460;2023-05-06T18:16:10;16.50;;;3.15;;
26337;SDS011;14050;50.950;4.460;2023-05-06T18:21:11;7.77;;;2.07;;
26337;SDS011;14050;50.950;4.460;2023-05-06T18:26:11;11.53;;;2.73;;
26337;SDS011;14050;50.950;4.460;2023-05-06T18:31:11;9.30;;;2.50;;
26337;SDS011;14050;50.950;4.460;2023-05-06T18:36:12;12.68;;;2.65;;
26337;SDS011;14050;50.950;4.460;2023-05-06T18:41:12;8.23;;;2.45;;
26337;SDS011;14050;50.950;4.460;2023-05-06T18:46:13;10.02;;;2.20;;
26337;SDS011;14050;50.950;4.460;2023-05-06T18:51:16;11.60;;;2.67;;
26337;SDS011;14050;50.950;4.460;2023-05-06T18:56:16;9.82;;;2.80;;
26337;SDS011;14050;50.950;4.460;2023-05-06T19:01:17;9.30;;;2.13;;
26337;SDS011;14050;50.950;4.460;2023-05-06T19:06:17;10.90;;;2.45;;
26337;SDS011;14050;50.950;4.460;2023-05-06T19:11:17;10.73;;;2.80;;
26337;SDS011;14050;50.950;4.460;2023-05-06T19:16:18;10.50;;;2.80;;
26337;SDS011;14050;50.950;4.460;2023-05-06T19:21:18;7.50;;;2.43;;
26337;SDS011;14050;50.950;4.460;2023-05-06T19:26:19;10.18;;;2.63;;
26337;SDS011;14050;50.950;4.460;2023-05-06T19:31:20;11.50;;;2.88;;
26337;SDS011;14050;50.950;4.460;2023-05-06T19:36:20;10.25;;;2.58;;
26337;SDS011;14050;50.950;4.460;2023-05-06T19:41:21;9.93;;;2.78;;
26337;SDS011;14050;50.950;4.460;2023-05-06T19:46:21;8.87;;;2.40;;
26337;SDS011;14050;50.950;4.460;2023-05-06T19:51:21;9.00;;;2.97;;
26337;SDS011;14050;50.950;4.460;2023-05-06T19:56:21;8.87;;;2.70;;
26337;SDS011;14050;50.950;4.460;2023-05-06T20:01:22;14.68;;;3.08;;
26337;SDS011;14050;50.950;4.460;2023-05-06T20:06:23;12.13;;;3.20;;
26337;SDS011;14050;50.950;4.460;2023-05-06T20:11:23;12.07;;;3.33;;
26337;SDS011;14050;50.950;4.460;2023-05-06T20:16:24;12.50;;;3.20;;
26337;SDS011;14050;50.950;4.460;2023-05-06T20:21:25;12.77;;;2.93;;
26337;SDS011;14050;50.950;4.460;2023-05-06T20:26:25;10.00;;;2.88;;
26337;SDS011;14050;50.950;4.460;2023-05-06T20:31:26;13.77;;;3.35;;
26337;SDS011;14050;50.950;4.460;2023-05-06T20:36:26;14.52;;;3.30;;
26337;SDS011;14050;50.950;4.460;2023-05-06T20:41:27;13.20;;;4.20;;
26337;SDS011;14050;50.950;4.460;2023-05-06T20:46:27;14.38;;;4.00;;
26337;SDS011;14050;50.950;4.460;2023-05-06T20:51:28;19.80;;;4.10;;
26337;SDS011;14050;50.950;4.460;2023-05-06T20:56:28;12.07;;;3.55;;
26337;SDS011;14050;50.950;4.460;2023-05-06T21:01:29;16.10;;;3.60;;
26337;SDS011;14050;50.950;4.460;2023-05-06T21:06:29;13.60;;;3.92;;
26337;SDS011;14050;50.950;4.460;2023-05-06T21:11:31;10.07;;;3.80;;
26337;SDS011;14050;50.950;4.460;2023-05-06T21:16:31;10.50;;;3.20;;
26337;SDS011;14050;50.950;4.460;2023-05-06T21:21:32;10.07;;;3.80;;
26337;SDS011;14050;50.950;4.460;2023-05-06T21:26:32;14.15;;;4.65;;
26337;SDS011;14050;50.950;4.460;2023-05-06T21:31:34;10.52;;;3.90;;
26337;SDS011;14050;50.950;4.460;2023-05-06T21:36:34;14.73;;;4.60;;
26337;SDS011;14050;50.950;4.460;2023-05-06T21:41:35;13.38;;;4.20;;
26337;SDS011;14050;50.950;4.460;2023-05-06T21:46:36;9.02;;;4.40;;
26337;SDS011;14050;50.950;4.460;2023-05-06T21:51:36;12.27;;;4.53;;
26337;SDS011;14050;50.950;4.460;2023-05-06T21:56:37;11.07;;;4.47;;
26337;SDS011;14050;50.950;4.460;2023-05-06T22:01:37;11.30;;;3.97;;
26337;SDS011;14050;50.950;4.460;2023-05-06T22:06:38;15.13;;;4.88;;
26337;SDS011;14050;50.950;4.460;2023-05-06T22:11:38;14.52;;;5.10;;
26337;SDS011;14050;50.950;4.460;2023-05-06T22:16:39;17.07;;;5.00;;
26337;SDS011;14050;50.950;4.460;2023-05-06T22:21:40;14.98;;;4.75;;
26337;SDS011;14050;50.950;4.460;2023-05-06T22:26:41;11.38;;;4.18;;
26337;SDS011;14050;50.950;4.460;2023-05-06T22:31:41;19.73;;;5.40;;
26337;SDS011;14050;50.950;4.460;2023-05-06T22:36:42;11.60;;;4.50;;
26337;SDS011;14050;50.950;4.460;2023-05-06T22:41:42;12.32;;;4.50;;
26337;SDS011;14050;50.950;4.460;2023-05-06T22:46:43;13.25;;;4.13;;
26337;SDS011;14050;50.950;4.460;2023-05-06T22:51:44;13.73;;;4.70;;
26337;SDS011;14050;50.950;4.460;2023-05-06T22:56:44;9.75;;;4.20;;
26337;SDS011;14050;50.950;4.460;2023-05-06T23:01:45;18.40;;;4.47;;
26337;SDS011;14050;50.950;4.460;2023-05-06T23:06:45;12.67;;;4.17;;
26337;SDS011;14050;50.950;4.460;2023-05-06T23:11:45;13.97;;;4.53;;
26337;SDS011;14050;50.950;4.460;2023-05-06T23:16:46;10.80;;;4.20;;
26337;SDS011;14050;50.950;4.460;2023-05-06T23:21:46;10.03;;;4.43;;
26337;SDS011;14050;50.950;4.460;2023-05-06T23:26:47;11.73;;;4.28;;
26337;SDS011;14050;50.950;4.460;2023-05-06T23:31:47;11.88;;;4.35;;
26337;SDS011;14050;50.950;4.460;2023-05-06T23:36:48;9.85;;;4.13;;
26337;SDS011;14050;50.950;4.460;2023-05-06T23:41:48;10.83;;;4.60;;
26337;SDS011;14050;50.950;4.460;2023-05-06T23:46:48;10.47;;;4.73;;
26337;SDS011;14050;50.950;4.460;2023-05-06T23:51:49;10.20;;;4.23;;
26337;SDS011;14050;50.950;4.460;2023-05-06T23:56:49;13.80;;;4.70;;
